Aviation Digital Data Service (ADDS)

Output produced by METARs form (1938 UTC 23 January 2019)
found at http://www.aviationweather.gov/metar/data/
 
METAR text: DAAG 231930Z 29021KT 8000 -RA FEW020TCU FEW026CB BKN083 15/08 Q1001
Conditions at: DAAG (DAR-EL-BEIDA/HOU, DZ) observed 1930 UTC 23 January 2019
Temperature: 15.0°C (59°F)
Dewpoint: 8.0°C (46°F) [RH = 63%]
Pressure (altimeter): 29.56 inches Hg (1001.0 mb)
Winds: from the WNW (290 degrees) at 24 MPH (21 knots; 10.8 m/s)
Visibility: 5 miles ( 8 km)
Ceiling: 8300 feet AGL
Clouds: few clouds at 2000 feet AGL
few clouds at 2600 feet AGL
broken clouds at 8300 feet AGL
Weather: -RA  (light rain)

METAR text: DAAG 231900Z 29023KT 8000 -RA FEW020TCU FEW026CB BKN083 15/08 Q1002
Conditions at: DAAG (DAR-EL-BEIDA/HOU, DZ) observed 1900 UTC 23 January 2019
Temperature: 15.0°C (59°F)
Dewpoint: 8.0°C (46°F) [RH = 63%]
Pressure (altimeter): 29.59 inches Hg (1002.0 mb)
Winds: from the WNW (290 degrees) at 26 MPH (23 knots; 11.8 m/s)
Visibility: 5 miles ( 8 km)
Ceiling: 8300 feet AGL
Clouds: few clouds at 2000 feet AGL
few clouds at 2600 feet AGL
broken clouds at 8300 feet AGL
Weather: -RA  (light rain)

METAR text: DAAG 231830Z 29026G36KT 8000 FEW020TCU FEW026CB BKN083 15/08 Q1002
Conditions at: DAAG (DAR-EL-BEIDA/HOU, DZ) observed 1830 UTC 23 January 2019
Temperature: 15.0°C (59°F)
Dewpoint: 8.0°C (46°F) [RH = 63%]
Pressure (altimeter): 29.59 inches Hg (1002.0 mb)
Winds: from the WNW (290 degrees) at 30 MPH (26 knots; 13.4 m/s)
gusting to 41 MPH (36 knots; 18.5 m/s)
Visibility: 5 miles ( 8 km)
Ceiling: 8300 feet AGL
Clouds: few clouds at 2000 feet AGL
few clouds at 2600 feet AGL
broken clouds at 8300 feet AGL
Weather: no significant weather observed at this time

METAR text: DAAG 231800Z 29021G32KT 8000 SCT020TCU SCT040 BKN083 15/08 Q1001
Conditions at: DAAG (DAR-EL-BEIDA/HOU, DZ) observed 1800 UTC 23 January 2019
Temperature: 15.0°C (59°F)
Dewpoint: 8.0°C (46°F) [RH = 63%]
Pressure (altimeter): 29.56 inches Hg (1001.0 mb)
Winds: from the WNW (290 degrees) at 24 MPH (21 knots; 10.8 m/s)
gusting to 37 MPH (32 knots; 16.5 m/s)
Visibility: 5 miles ( 8 km)
Ceiling: 8300 feet AGL
Clouds: scattered clouds at 2000 feet AGL
scattered clouds at 4000 feet AGL
broken clouds at 8300 feet AGL
Weather: no significant weather observed at this time

METAR text: DAAG 231730Z 29024KT 8000 SCT020TCU SCT036 BKN080 15/08 Q1001
Conditions at: DAAG (DAR-EL-BEIDA/HOU, DZ) observed 1730 UTC 23 January 2019
Temperature: 15.0°C (59°F)
Dewpoint: 8.0°C (46°F) [RH = 63%]
Pressure (altimeter): 29.56 inches Hg (1001.0 mb)
Winds: from the WNW (290 degrees) at 28 MPH (24 knots; 12.3 m/s)
Visibility: 5 miles ( 8 km)
Ceiling: 8000 feet AGL
Clouds: scattered clouds at 2000 feet AGL
scattered clouds at 3600 feet AGL
broken clouds at 8000 feet AGL
Weather: no significant weather observed at this time

METAR text: DAAG 231700Z 29024G38KT 8000 SCT020TCU BKN036 14/09 Q1002
Conditions at: DAAG (DAR-EL-BEIDA/HOU, DZ) observed 1700 UTC 23 January 2019
Temperature: 14.0°C (57°F)
Dewpoint: 9.0°C (48°F) [RH = 72%]
Pressure (altimeter): 29.59 inches Hg (1002.0 mb)
Winds: from the WNW (290 degrees) at 28 MPH (24 knots; 12.3 m/s)
gusting to 44 MPH (38 knots; 19.5 m/s)
Visibility: 5 miles ( 8 km)
Ceiling: 3600 feet AGL
Clouds: scattered clouds at 2000 feet AGL
broken clouds at 3600 feet AGL
Weather: no significant weather observed at this time

METAR text: DAAG 231630Z 29024G36KT 9999 SCT020TCU BKN036 14/09 Q1002
Conditions at: DAAG (DAR-EL-BEIDA/HOU, DZ) observed 1630 UTC 23 January 2019
Temperature: 14.0°C (57°F)
Dewpoint: 9.0°C (48°F) [RH = 72%]
Pressure (altimeter): 29.59 inches Hg (1002.0 mb)
Winds: from the WNW (290 degrees) at 28 MPH (24 knots; 12.3 m/s)
gusting to 41 MPH (36 knots; 18.5 m/s)
Visibility: 6 or more miles (10+ km)
Ceiling: 3600 feet AGL
Clouds: scattered clouds at 2000 feet AGL
broken clouds at 3600 feet AGL
Weather: no significant weather observed at this time

METAR text: DAAG 231600Z 30030G42KT 9999 SCT020TCU BKN036 14/10 Q1002
Conditions at: DAAG (DAR-EL-BEIDA/HOU, DZ) observed 1600 UTC 23 January 2019
Temperature: 14.0°C (57°F)
Dewpoint: 10.0°C (50°F) [RH = 77%]
Pressure (altimeter): 29.59 inches Hg (1002.0 mb)
Winds: from the WNW (300 degrees) at 34 MPH (30 knots; 15.4 m/s)
gusting to 48 MPH (42 knots; 21.6 m/s)
Visibility: 6 or more miles (10+ km)
Ceiling: 3600 feet AGL
Clouds: scattered clouds at 2000 feet AGL
broken clouds at 3600 feet AGL
Weather: no significant weather observed at this time

METAR text: DAAG 231530Z 30025G36KT 9999 SCT020TCU BKN036 14/10 Q1002
Conditions at: DAAG (DAR-EL-BEIDA/HOU, DZ) observed 1530 UTC 23 January 2019
Temperature: 14.0°C (57°F)
Dewpoint: 10.0°C (50°F) [RH = 77%]
Pressure (altimeter): 29.59 inches Hg (1002.0 mb)
Winds: from the WNW (300 degrees) at 29 MPH (25 knots; 12.9 m/s)
gusting to 41 MPH (36 knots; 18.5 m/s)
Visibility: 6 or more miles (10+ km)
Ceiling: 3600 feet AGL
Clouds: scattered clouds at 2000 feet AGL
broken clouds at 3600 feet AGL
Weather: no significant weather observed at this time

METAR text: DAAG 231500Z 29023G34KT 9999 SCT020TCU BKN036 14/10 Q1002
Conditions at: DAAG (DAR-EL-BEIDA/HOU, DZ) observed 1500 UTC 23 January 2019
Temperature: 14.0°C (57°F)
Dewpoint: 10.0°C (50°F) [RH = 77%]
Pressure (altimeter): 29.59 inches Hg (1002.0 mb)
Winds: from the WNW (290 degrees) at 26 MPH (23 knots; 11.8 m/s)
gusting to 39 MPH (34 knots; 17.5 m/s)
Visibility: 6 or more miles (10+ km)
Ceiling: 3600 feet AGL
Clouds: scattered clouds at 2000 feet AGL
broken clouds at 3600 feet AGL
Weather: no significant weather observed at this time

METAR text: DAAG 231430Z 29024G37KT 9999 SCT020TCU BKN040 14/10 Q1002
Conditions at: DAAG (DAR-EL-BEIDA/HOU, DZ) observed 1430 UTC 23 January 2019
Temperature: 14.0°C (57°F)
Dewpoint: 10.0°C (50°F) [RH = 77%]
Pressure (altimeter): 29.59 inches Hg (1002.0 mb)
Winds: from the WNW (290 degrees) at 28 MPH (24 knots; 12.3 m/s)
gusting to 43 MPH (37 knots; 19.0 m/s)
Visibility: 6 or more miles (10+ km)
Ceiling: 4000 feet AGL
Clouds: scattered clouds at 2000 feet AGL
broken clouds at 4000 feet AGL
Weather: no significant weather observed at this time

METAR text: DAAG 231400Z 29020G30KT 9999 SCT020TCU BKN040 14/10 Q1002
Conditions at: DAAG (DAR-EL-BEIDA/HOU, DZ) observed 1400 UTC 23 January 2019
Temperature: 14.0°C (57°F)
Dewpoint: 10.0°C (50°F) [RH = 77%]
Pressure (altimeter): 29.59 inches Hg (1002.0 mb)
Winds: from the WNW (290 degrees) at 23 MPH (20 knots; 10.3 m/s)
gusting to 34 MPH (30 knots; 15.4 m/s)
Visibility: 6 or more miles (10+ km)
Ceiling: 4000 feet AGL
Clouds: scattered clouds at 2000 feet AGL
broken clouds at 4000 feet AGL
Weather: no significant weather observed at this time

METAR text: DAAG 231330Z 30018KT 260V320 9999 -RA SCT020TCU BKN040 14/09 Q1003
Conditions at: DAAG (DAR-EL-BEIDA/HOU, DZ) observed 1330 UTC 23 January 2019
Temperature: 14.0°C (57°F)
Dewpoint: 9.0°C (48°F) [RH = 72%]
Pressure (altimeter): 29.62 inches Hg (1003.0 mb)
Winds: from the WNW (300 degrees) at 21 MPH (18 knots; 9.3 m/s)
Visibility: 6 or more miles (10+ km)
Ceiling: 4000 feet AGL
Clouds: scattered clouds at 2000 feet AGL
broken clouds at 4000 feet AGL
Weather: -RA  (light rain)

METAR text: DAAG 231300Z 29017KT 9999 FEW020TCU FEW026CB BKN040 13/09 Q1003
Conditions at: DAAG (DAR-EL-BEIDA/HOU, DZ) observed 1300 UTC 23 January 2019
Temperature: 13.0°C (55°F)
Dewpoint: 9.0°C (48°F) [RH = 77%]
Pressure (altimeter): 29.62 inches Hg (1003.0 mb)
Winds: from the WNW (290 degrees) at 20 MPH (17 knots; 8.7 m/s)
Visibility: 6 or more miles (10+ km)
Ceiling: 4000 feet AGL
Clouds: few clouds at 2000 feet AGL
few clouds at 2600 feet AGL
broken clouds at 4000 feet AGL
Weather: no significant weather observed at this time

METAR text: DAAG 231230Z 27008KT 230V310 9999 -RA FEW020TCU FEW026CB BKN040 13/09 Q1004
Conditions at: DAAG (DAR-EL-BEIDA/HOU, DZ) observed 1230 UTC 23 January 2019
Temperature: 13.0°C (55°F)
Dewpoint: 9.0°C (48°F) [RH = 77%]
Pressure (altimeter): 29.65 inches Hg (1004.0 mb)
Winds: from the W (270 degrees) at 9 MPH (8 knots; 4.1 m/s)
Visibility: 6 or more miles (10+ km)
Ceiling: 4000 feet AGL
Clouds: few clouds at 2000 feet AGL
few clouds at 2600 feet AGL
broken clouds at 4000 feet AGL
Weather: -RA  (light rain)

METAR text: DAAG 231200Z 27017KT 9999 FEW020TCU FEW026CB SCT040 BKN080 14/08 Q1004
Conditions at: DAAG (DAR-EL-BEIDA/HOU, DZ) observed 1200 UTC 23 January 2019
Temperature: 14.0°C (57°F)
Dewpoint: 8.0°C (46°F) [RH = 67%]
Pressure (altimeter): 29.65 inches Hg (1004.0 mb)
Winds: from the W (270 degrees) at 20 MPH (17 knots; 8.7 m/s)
Visibility: 6 or more miles (10+ km)
Ceiling: 8000 feet AGL
Clouds: few clouds at 2000 feet AGL
few clouds at 2600 feet AGL
scattered clouds at 4000 feet AGL
broken clouds at 8000 feet AGL
Weather: no significant weather observed at this time

METAR text: DAAG 231130Z 27011G21KT 240V300 9999 SCT020TCU FEW026CB BKN040 13/09 Q1005
Conditions at: DAAG (DAR-EL-BEIDA/HOU, DZ) observed 1130 UTC 23 January 2019
Temperature: 13.0°C (55°F)
Dewpoint: 9.0°C (48°F) [RH = 77%]
Pressure (altimeter): 29.68 inches Hg (1005.0 mb)
Winds: from the W (270 degrees) at 13 MPH (11 knots; 5.7 m/s)
gusting to 24 MPH (21 knots; 10.8 m/s)
Visibility: 6 or more miles (10+ km)
Ceiling: 4000 feet AGL
Clouds: scattered clouds at 2000 feet AGL
few clouds at 2600 feet AGL
broken clouds at 4000 feet AGL
Weather: no significant weather observed at this time

METAR text: DAAG 231100Z 27009KT 9999 SCT020TCU FEW026CB SCT080 14/10 Q1005
Conditions at: DAAG (DAR-EL-BEIDA/HOU, DZ) observed 1100 UTC 23 January 2019
Temperature: 14.0°C (57°F)
Dewpoint: 10.0°C (50°F) [RH = 77%]
Pressure (altimeter): 29.68 inches Hg (1005.0 mb)
Winds: from the W (270 degrees) at 10 MPH (9 knots; 4.6 m/s)
Visibility: 6 or more miles (10+ km)
Ceiling: at least 12,000 feet AGL
Clouds: scattered clouds at 2000 feet AGL
few clouds at 2600 feet AGL
scattered clouds at 8000 feet AGL
Weather: no significant weather observed at this time

METAR text: DAAG 231030Z 26007KT 220V290 9999 SCT020TCU BKN086 13/09 Q1006
Conditions at: DAAG (DAR-EL-BEIDA/HOU, DZ) observed 1030 UTC 23 January 2019
Temperature: 13.0°C (55°F)
Dewpoint: 9.0°C (48°F) [RH = 77%]
Pressure (altimeter): 29.70 inches Hg (1006.0 mb)
Winds: from the W (260 degrees) at 8 MPH (7 knots; 3.6 m/s)
Visibility: 6 or more miles (10+ km)
Ceiling: 8600 feet AGL
Clouds: scattered clouds at 2000 feet AGL
broken clouds at 8600 feet AGL
Weather: no significant weather observed at this time

METAR text: DAAG 231000Z 26006KT 220V300 9999 SCT020TCU BKN086 12/09 Q1006
Conditions at: DAAG (DAR-EL-BEIDA/HOU, DZ) observed 1000 UTC 23 January 2019
Temperature: 12.0°C (54°F)
Dewpoint: 9.0°C (48°F) [RH = 82%]
Pressure (altimeter): 29.70 inches Hg (1006.0 mb)
Winds: from the W (260 degrees) at 7 MPH (6 knots; 3.1 m/s)
Visibility: 6 or more miles (10+ km)
Ceiling: 8600 feet AGL
Clouds: scattered clouds at 2000 feet AGL
broken clouds at 8600 feet AGL
Weather: no significant weather observed at this time

METAR text: DAAG 230930Z 27007KT 240V300 9999 SCT020TCU FEW023CB SCT080 12/08 Q1006
Conditions at: DAAG (DAR-EL-BEIDA/HOU, DZ) observed 0930 UTC 23 January 2019
Temperature: 12.0°C (54°F)
Dewpoint: 8.0°C (46°F) [RH = 76%]
Pressure (altimeter): 29.70 inches Hg (1006.0 mb)
Winds: from the W (270 degrees) at 8 MPH (7 knots; 3.6 m/s)
Visibility: 6 or more miles (10+ km)
Ceiling: at least 12,000 feet AGL
Clouds: scattered clouds at 2000 feet AGL
few clouds at 2300 feet AGL
scattered clouds at 8000 feet AGL
Weather: no significant weather observed at this time

METAR text: DAAG 230900Z 27009KT 240V310 9999 SCT020TCU FEW023CB SCT073 11/08 Q1006
Conditions at: DAAG (DAR-EL-BEIDA/HOU, DZ) observed 0900 UTC 23 January 2019
Temperature: 11.0°C (52°F)
Dewpoint: 8.0°C (46°F) [RH = 82%]
Pressure (altimeter): 29.70 inches Hg (1006.0 mb)
Winds: from the W (270 degrees) at 10 MPH (9 knots; 4.6 m/s)
Visibility: 6 or more miles (10+ km)
Ceiling: at least 12,000 feet AGL
Clouds: scattered clouds at 2000 feet AGL
few clouds at 2300 feet AGL
scattered clouds at 7300 feet AGL
Weather: no significant weather observed at this time

METAR text: DAAG 230830Z 26006KT 220V290 9999 SCT020TCU FEW023CB SCT040 09/08 Q1006
Conditions at: DAAG (DAR-EL-BEIDA/HOU, DZ) observed 0830 UTC 23 January 2019
Temperature: 9.0°C (48°F)
Dewpoint: 8.0°C (46°F) [RH = 93%]
Pressure (altimeter): 29.70 inches Hg (1006.0 mb)
Winds: from the W (260 degrees) at 7 MPH (6 knots; 3.1 m/s)
Visibility: 6 or more miles (10+ km)
Ceiling: at least 12,000 feet AGL
Clouds: scattered clouds at 2000 feet AGL
few clouds at 2300 feet AGL
scattered clouds at 4000 feet AGL
Weather: no significant weather observed at this time

METAR text: DAAG 230800Z 26006KT 230V290 9999 SCT020TCU FEW023CB SCT040 09/07 Q1007
Conditions at: DAAG (DAR-EL-BEIDA/HOU, DZ) observed 0800 UTC 23 January 2019
Temperature: 9.0°C (48°F)
Dewpoint: 7.0°C (45°F) [RH = 87%]
Pressure (altimeter): 29.73 inches Hg (1007.0 mb)
Winds: from the W (260 degrees) at 7 MPH (6 knots; 3.1 m/s)
Visibility: 6 or more miles (10+ km)
Ceiling: at least 12,000 feet AGL
Clouds: scattered clouds at 2000 feet AGL
few clouds at 2300 feet AGL
scattered clouds at 4000 feet AGL
Weather: no significant weather observed at this time

METAR text: DAAG 230730Z 27006KT 230V300 9999 SCT020TCU FEW023CB SCT040 09/07 Q1007
Conditions at: DAAG (DAR-EL-BEIDA/HOU, DZ) observed 0730 UTC 23 January 2019
Temperature: 9.0°C (48°F)
Dewpoint: 7.0°C (45°F) [RH = 87%]
Pressure (altimeter): 29.73 inches Hg (1007.0 mb)
Winds: from the W (270 degrees) at 7 MPH (6 knots; 3.1 m/s)
Visibility: 6 or more miles (10+ km)
Ceiling: at least 12,000 feet AGL
Clouds: scattered clouds at 2000 feet AGL
few clouds at 2300 feet AGL
scattered clouds at 4000 feet AGL
Weather: no significant weather observed at this time

METAR text: DAAG 230700Z 27009KT 250V310 9999 SCT020TCU FEW023CB SCT040 09/07 Q1007
Conditions at: DAAG (DAR-EL-BEIDA/HOU, DZ) observed 0700 UTC 23 January 2019
Temperature: 9.0°C (48°F)
Dewpoint: 7.0°C (45°F) [RH = 87%]
Pressure (altimeter): 29.73 inches Hg (1007.0 mb)
Winds: from the W (270 degrees) at 10 MPH (9 knots; 4.6 m/s)
Visibility: 6 or more miles (10+ km)
Ceiling: at least 12,000 feet AGL
Clouds: scattered clouds at 2000 feet AGL
few clouds at 2300 feet AGL
scattered clouds at 4000 feet AGL
Weather: no significant weather observed at this time

METAR text: DAAG 230630Z 27008KT 240V300 9999 FEW020TCU FEW023CB SCT040 09/07 Q1007
Conditions at: DAAG (DAR-EL-BEIDA/HOU, DZ) observed 0630 UTC 23 January 2019
Temperature: 9.0°C (48°F)
Dewpoint: 7.0°C (45°F) [RH = 87%]
Pressure (altimeter): 29.73 inches Hg (1007.0 mb)
Winds: from the W (270 degrees) at 9 MPH (8 knots; 4.1 m/s)
Visibility: 6 or more miles (10+ km)
Ceiling: at least 12,000 feet AGL
Clouds: few clouds at 2000 feet AGL
few clouds at 2300 feet AGL
scattered clouds at 4000 feet AGL
Weather: no significant weather observed at this time

METAR text: DAAG 230600Z 26007KT 230V300 9999 FEW020TCU FEW023CB SCT040 09/07 Q1007 RETS
Conditions at: DAAG (DAR-EL-BEIDA/HOU, DZ) observed 0600 UTC 23 January 2019
Temperature: 9.0°C (48°F)
Dewpoint: 7.0°C (45°F) [RH = 87%]
Pressure (altimeter): 29.73 inches Hg (1007.0 mb)
Winds: from the W (260 degrees) at 8 MPH (7 knots; 3.6 m/s)
Visibility: 6 or more miles (10+ km)
Ceiling: at least 12,000 feet AGL
Clouds: few clouds at 2000 feet AGL
few clouds at 2300 feet AGL
scattered clouds at 4000 feet AGL
Weather: no significant weather observed at this time

METAR text: DAAG 230530Z 26005KT 220V300 9999 FEW020TCU FEW026CB SCT040 08/07 Q1007 RETS
Conditions at: DAAG (DAR-EL-BEIDA/HOU, DZ) observed 0530 UTC 23 January 2019
Temperature: 8.0°C (46°F)
Dewpoint: 7.0°C (45°F) [RH = 93%]
Pressure (altimeter): 29.73 inches Hg (1007.0 mb)
Winds: from the W (260 degrees) at 6 MPH (5 knots; 2.6 m/s)
Visibility: 6 or more miles (10+ km)
Ceiling: at least 12,000 feet AGL
Clouds: few clouds at 2000 feet AGL
few clouds at 2600 feet AGL
scattered clouds at 4000 feet AGL
Weather: no significant weather observed at this time

METAR text: DAAG 230500Z 25006KT 220V300 8000 -TSRA FEW020TCU FEW026CB SCT040 09/07 Q1007 RERA
Conditions at: DAAG (DAR-EL-BEIDA/HOU, DZ) observed 0500 UTC 23 January 2019
Temperature: 9.0°C (48°F)
Dewpoint: 7.0°C (45°F) [RH = 87%]
Pressure (altimeter): 29.73 inches Hg (1007.0 mb)
Winds: from the WSW (250 degrees) at 7 MPH (6 knots; 3.1 m/s)
Visibility: 5 miles ( 8 km)
Ceiling: at least 12,000 feet AGL
Clouds: few clouds at 2000 feet AGL
few clouds at 2600 feet AGL
scattered clouds at 4000 feet AGL
Weather: -TSRA  (light rain associated with thunderstorm(s))

METAR text: DAAG 230430Z 25006KT 220V290 9999 FEW020TCU FEW026CB SCT040 08/07 Q1007
Conditions at: DAAG (DAR-EL-BEIDA/HOU, DZ) observed 0430 UTC 23 January 2019
Temperature: 8.0°C (46°F)
Dewpoint: 7.0°C (45°F) [RH = 93%]
Pressure (altimeter): 29.73 inches Hg (1007.0 mb)
Winds: from the WSW (250 degrees) at 7 MPH (6 knots; 3.1 m/s)
Visibility: 6 or more miles (10+ km)
Ceiling: at least 12,000 feet AGL
Clouds: few clouds at 2000 feet AGL
few clouds at 2600 feet AGL
scattered clouds at 4000 feet AGL
Weather: no significant weather observed at this time

METAR text: DAAG 230400Z 25007KT 220V300 9000 -RA FEW020TCU FEW026CB SCT040 08/07 Q1007
Conditions at: DAAG (DAR-EL-BEIDA/HOU, DZ) observed 0400 UTC 23 January 2019
Temperature: 8.0°C (46°F)
Dewpoint: 7.0°C (45°F) [RH = 93%]
Pressure (altimeter): 29.73 inches Hg (1007.0 mb)
Winds: from the WSW (250 degrees) at 8 MPH (7 knots; 3.6 m/s)
Visibility: 6 miles ( 9 km)
Ceiling: at least 12,000 feet AGL
Clouds: few clouds at 2000 feet AGL
few clouds at 2600 feet AGL
scattered clouds at 4000 feet AGL
Weather: -RA  (light rain)

METAR text: DAAG 230330Z 25008KT 220V300 6000 -RA FEW020TCU FEW026CB BKN040 08/07 Q1008
Conditions at: DAAG (DAR-EL-BEIDA/HOU, DZ) observed 0330 UTC 23 January 2019
Temperature: 8.0°C (46°F)
Dewpoint: 7.0°C (45°F) [RH = 93%]
Pressure (altimeter): 29.76 inches Hg (1008.0 mb)
Winds: from the WSW (250 degrees) at 9 MPH (8 knots; 4.1 m/s)
Visibility: 4 miles ( 6 km)
Ceiling: 4000 feet AGL
Clouds: few clouds at 2000 feet AGL
few clouds at 2600 feet AGL
broken clouds at 4000 feet AGL
Weather: -RA  (light rain)

METAR text: DAAG 230300Z 27010KT 230V290 8000 FEW020TCU FEW026CB BKN040 08/07 Q1008
Conditions at: DAAG (DAR-EL-BEIDA/HOU, DZ) observed 0300 UTC 23 January 2019
Temperature: 8.0°C (46°F)
Dewpoint: 7.0°C (45°F) [RH = 93%]
Pressure (altimeter): 29.76 inches Hg (1008.0 mb)
Winds: from the W (270 degrees) at 12 MPH (10 knots; 5.1 m/s)
Visibility: 5 miles ( 8 km)
Ceiling: 4000 feet AGL
Clouds: few clouds at 2000 feet AGL
few clouds at 2600 feet AGL
broken clouds at 4000 feet AGL
Weather: no significant weather observed at this time

METAR text: DAAG 230230Z 25009KT 230V290 8000 -RA FEW020TCU FEW026CB BKN040 08/07 Q1008
Conditions at: DAAG (DAR-EL-BEIDA/HOU, DZ) observed 0230 UTC 23 January 2019
Temperature: 8.0°C (46°F)
Dewpoint: 7.0°C (45°F) [RH = 93%]
Pressure (altimeter): 29.76 inches Hg (1008.0 mb)
Winds: from the WSW (250 degrees) at 10 MPH (9 knots; 4.6 m/s)
Visibility: 5 miles ( 8 km)
Ceiling: 4000 feet AGL
Clouds: few clouds at 2000 feet AGL
few clouds at 2600 feet AGL
broken clouds at 4000 feet AGL
Weather: -RA  (light rain)

METAR text: DAAG 230200Z 24006KT 210V270 6000 -RA FEW020TCU FEW026CB BKN040 08/07 Q1009
Conditions at: DAAG (DAR-EL-BEIDA/HOU, DZ) observed 0200 UTC 23 January 2019
Temperature: 8.0°C (46°F)
Dewpoint: 7.0°C (45°F) [RH = 93%]
Pressure (altimeter): 29.79 inches Hg (1009.0 mb)
Winds: from the WSW (240 degrees) at 7 MPH (6 knots; 3.1 m/s)
Visibility: 4 miles ( 6 km)
Ceiling: 4000 feet AGL
Clouds: few clouds at 2000 feet AGL
few clouds at 2600 feet AGL
broken clouds at 4000 feet AGL
Weather: -RA  (light rain)

METAR text: DAAG 230130Z 26005KT 220V290 6000 -RA FEW020TCU FEW026CB BKN040 08/07 Q1009
Conditions at: DAAG (DAR-EL-BEIDA/HOU, DZ) observed 0130 UTC 23 January 2019
Temperature: 8.0°C (46°F)
Dewpoint: 7.0°C (45°F) [RH = 93%]
Pressure (altimeter): 29.79 inches Hg (1009.0 mb)
Winds: from the W (260 degrees) at 6 MPH (5 knots; 2.6 m/s)
Visibility: 4 miles ( 6 km)
Ceiling: 4000 feet AGL
Clouds: few clouds at 2000 feet AGL
few clouds at 2600 feet AGL
broken clouds at 4000 feet AGL
Weather: -RA  (light rain)

METAR text: DAAG 230100Z 27009KT 240V300 6000 -RA FEW020TCU FEW026CB BKN040 08/07 Q1009
Conditions at: DAAG (DAR-EL-BEIDA/HOU, DZ) observed 0100 UTC 23 January 2019
Temperature: 8.0°C (46°F)
Dewpoint: 7.0°C (45°F) [RH = 93%]
Pressure (altimeter): 29.79 inches Hg (1009.0 mb)
Winds: from the W (270 degrees) at 10 MPH (9 knots; 4.6 m/s)
Visibility: 4 miles ( 6 km)
Ceiling: 4000 feet AGL
Clouds: few clouds at 2000 feet AGL
few clouds at 2600 feet AGL
broken clouds at 4000 feet AGL
Weather: -RA  (light rain)

METAR text: DAAG 230030Z 26008KT 220V290 7000 -RA FEW020TCU FEW026CB BKN040 08/07 Q1009
Conditions at: DAAG (DAR-EL-BEIDA/HOU, DZ) observed 0030 UTC 23 January 2019
Temperature: 8.0°C (46°F)
Dewpoint: 7.0°C (45°F) [RH = 93%]
Pressure (altimeter): 29.79 inches Hg (1009.0 mb)
Winds: from the W (260 degrees) at 9 MPH (8 knots; 4.1 m/s)
Visibility: 4 miles ( 7 km)
Ceiling: 4000 feet AGL
Clouds: few clouds at 2000 feet AGL
few clouds at 2600 feet AGL
broken clouds at 4000 feet AGL
Weather: -RA  (light rain)

METAR text: DAAG 230000Z 25011KT 210V280 8000 -RA FEW020TCU FEW026CB BKN040 08/07 Q1010
Conditions at: DAAG (DAR-EL-BEIDA/HOU, DZ) observed 0000 UTC 23 January 2019
Temperature: 8.0°C (46°F)
Dewpoint: 7.0°C (45°F) [RH = 93%]
Pressure (altimeter): 29.82 inches Hg (1010.0 mb)
Winds: from the WSW (250 degrees) at 13 MPH (11 knots; 5.7 m/s)
Visibility: 5 miles ( 8 km)
Ceiling: 4000 feet AGL
Clouds: few clouds at 2000 feet AGL
few clouds at 2600 feet AGL
broken clouds at 4000 feet AGL
Weather: -RA  (light rain)

METAR text: DAAG 222330Z 27012KT 240V300 8000 -RA FEW020TCU FEW026CB BKN040 08/07 Q1010
Conditions at: DAAG (DAR-EL-BEIDA/HOU, DZ) observed 2330 UTC 22 January 2019
Temperature: 8.0°C (46°F)
Dewpoint: 7.0°C (45°F) [RH = 93%]
Pressure (altimeter): 29.82 inches Hg (1010.0 mb)
Winds: from the W (270 degrees) at 14 MPH (12 knots; 6.2 m/s)
Visibility: 5 miles ( 8 km)
Ceiling: 4000 feet AGL
Clouds: few clouds at 2000 feet AGL
few clouds at 2600 feet AGL
broken clouds at 4000 feet AGL
Weather: -RA  (light rain)

METAR text: DAAG 222300Z 25010KT 8000 -RA FEW020TCU FEW026CB BKN040 08/06 Q1010
Conditions at: DAAG (DAR-EL-BEIDA/HOU, DZ) observed 2300 UTC 22 January 2019
Temperature: 8.0°C (46°F)
Dewpoint: 6.0°C (43°F) [RH = 87%]
Pressure (altimeter): 29.82 inches Hg (1010.0 mb)
Winds: from the WSW (250 degrees) at 12 MPH (10 knots; 5.1 m/s)
Visibility: 5 miles ( 8 km)
Ceiling: 4000 feet AGL
Clouds: few clouds at 2000 feet AGL
few clouds at 2600 feet AGL
broken clouds at 4000 feet AGL
Weather: -RA  (light rain)

METAR text: DAAG 222230Z 26009KT 230V290 8000 -RA FEW020TCU FEW026CB BKN040 09/06 Q1010
Conditions at: DAAG (DAR-EL-BEIDA/HOU, DZ) observed 2230 UTC 22 January 2019
Temperature: 9.0°C (48°F)
Dewpoint: 6.0°C (43°F) [RH = 81%]
Pressure (altimeter): 29.82 inches Hg (1010.0 mb)
Winds: from the W (260 degrees) at 10 MPH (9 knots; 4.6 m/s)
Visibility: 5 miles ( 8 km)
Ceiling: 4000 feet AGL
Clouds: few clouds at 2000 feet AGL
few clouds at 2600 feet AGL
broken clouds at 4000 feet AGL
Weather: -RA  (light rain)

METAR text: DAAG 222200Z 27015G29KT 240V300 8000 -RA FEW020TCU FEW026CB BKN040 09/06 Q1010
Conditions at: DAAG (DAR-EL-BEIDA/HOU, DZ) observed 2200 UTC 22 January 2019
Temperature: 9.0°C (48°F)
Dewpoint: 6.0°C (43°F) [RH = 81%]
Pressure (altimeter): 29.82 inches Hg (1010.0 mb)
Winds: from the W (270 degrees) at 17 MPH (15 knots; 7.7 m/s)
gusting to 33 MPH (29 knots; 14.9 m/s)
Visibility: 5 miles ( 8 km)
Ceiling: 4000 feet AGL
Clouds: few clouds at 2000 feet AGL
few clouds at 2600 feet AGL
broken clouds at 4000 feet AGL
Weather: -RA  (light rain)

METAR text: DAAG 222130Z 27008KT 230V300 9999 FEW020TCU FEW026CB BKN040 10/05 Q1010
Conditions at: DAAG (DAR-EL-BEIDA/HOU, DZ) observed 2130 UTC 22 January 2019
Temperature: 10.0°C (50°F)
Dewpoint: 5.0°C (41°F) [RH = 71%]
Pressure (altimeter): 29.82 inches Hg (1010.0 mb)
Winds: from the W (270 degrees) at 9 MPH (8 knots; 4.1 m/s)
Visibility: 6 or more miles (10+ km)
Ceiling: 4000 feet AGL
Clouds: few clouds at 2000 feet AGL
few clouds at 2600 feet AGL
broken clouds at 4000 feet AGL
Weather: no significant weather observed at this time

METAR text: DAAG 222100Z 26004KT 230V290 9999 FEW020TCU FEW026CB BKN040 09/06 Q1011
Conditions at: DAAG (DAR-EL-BEIDA/HOU, DZ) observed 2100 UTC 22 January 2019
Temperature: 9.0°C (48°F)
Dewpoint: 6.0°C (43°F) [RH = 81%]
Pressure (altimeter): 29.85 inches Hg (1011.0 mb)
Winds: from the W (260 degrees) at 5 MPH (4 knots; 2.1 m/s)
Visibility: 6 or more miles (10+ km)
Ceiling: 4000 feet AGL
Clouds: few clouds at 2000 feet AGL
few clouds at 2600 feet AGL
broken clouds at 4000 feet AGL
Weather: no significant weather observed at this time

METAR text: DAAG 222030Z 25005KT 220V280 9999 FEW020TCU FEW026CB BKN040 09/06 Q1011
Conditions at: DAAG (DAR-EL-BEIDA/HOU, DZ) observed 2030 UTC 22 January 2019
Temperature: 9.0°C (48°F)
Dewpoint: 6.0°C (43°F) [RH = 81%]
Pressure (altimeter): 29.85 inches Hg (1011.0 mb)
Winds: from the WSW (250 degrees) at 6 MPH (5 knots; 2.6 m/s)
Visibility: 6 or more miles (10+ km)
Ceiling: 4000 feet AGL
Clouds: few clouds at 2000 feet AGL
few clouds at 2600 feet AGL
broken clouds at 4000 feet AGL
Weather: no significant weather observed at this time

METAR text: DAAG 222000Z 25006KT 9999 FEW020TCU FEW026CB SCT040 09/05 Q1012
Conditions at: DAAG (DAR-EL-BEIDA/HOU, DZ) observed 2000 UTC 22 January 2019
Temperature: 9.0°C (48°F)
Dewpoint: 5.0°C (41°F) [RH = 76%]
Pressure (altimeter): 29.88 inches Hg (1012.0 mb)
Winds: from the WSW (250 degrees) at 7 MPH (6 knots; 3.1 m/s)
Visibility: 6 or more miles (10+ km)
Ceiling: at least 12,000 feet AGL
Clouds: few clouds at 2000 feet AGL
few clouds at 2600 feet AGL
scattered clouds at 4000 feet AGL
Weather: no significant weather observed at this time

METAR text: DAAG 221930Z 29007KT 9999 FEW020TCU FEW026CB SCT040 10/04 Q1012
Conditions at: DAAG (DAR-EL-BEIDA/HOU, DZ) observed 1930 UTC 22 January 2019
Temperature: 10.0°C (50°F)
Dewpoint: 4.0°C (39°F) [RH = 66%]
Pressure (altimeter): 29.88 inches Hg (1012.0 mb)
Winds: from the WNW (290 degrees) at 8 MPH (7 knots; 3.6 m/s)
Visibility: 6 or more miles (10+ km)
Ceiling: at least 12,000 feet AGL
Clouds: few clouds at 2000 feet AGL
few clouds at 2600 feet AGL
scattered clouds at 4000 feet AGL
Weather: no significant weather observed at this time

METAR text: DAAG 221900Z 27006KT 230V310 9999 FEW020TCU FEW026CB SCT040 09/05 Q1012
Conditions at: DAAG (DAR-EL-BEIDA/HOU, DZ) observed 1900 UTC 22 January 2019
Temperature: 9.0°C (48°F)
Dewpoint: 5.0°C (41°F) [RH = 76%]
Pressure (altimeter): 29.88 inches Hg (1012.0 mb)
Winds: from the W (270 degrees) at 7 MPH (6 knots; 3.1 m/s)
Visibility: 6 or more miles (10+ km)
Ceiling: at least 12,000 feet AGL
Clouds: few clouds at 2000 feet AGL
few clouds at 2600 feet AGL
scattered clouds at 4000 feet AGL
Weather: no significant weather observed at this time

METAR text: DAAG 221830Z 24005KT 220V280 9999 FEW020TCU FEW026CB SCT040 09/05 Q1012
Conditions at: DAAG (DAR-EL-BEIDA/HOU, DZ) observed 1830 UTC 22 January 2019
Temperature: 9.0°C (48°F)
Dewpoint: 5.0°C (41°F) [RH = 76%]
Pressure (altimeter): 29.88 inches Hg (1012.0 mb)
Winds: from the WSW (240 degrees) at 6 MPH (5 knots; 2.6 m/s)
Visibility: 6 or more miles (10+ km)
Ceiling: at least 12,000 feet AGL
Clouds: few clouds at 2000 feet AGL
few clouds at 2600 feet AGL
scattered clouds at 4000 feet AGL
Weather: no significant weather observed at this time

METAR text: DAAG 221800Z 25004KT 220V280 9999 FEW020TCU FEW026CB BKN040 09/05 Q1012
Conditions at: DAAG (DAR-EL-BEIDA/HOU, DZ) observed 1800 UTC 22 January 2019
Temperature: 9.0°C (48°F)
Dewpoint: 5.0°C (41°F) [RH = 76%]
Pressure (altimeter): 29.88 inches Hg (1012.0 mb)
Winds: from the WSW (250 degrees) at 5 MPH (4 knots; 2.1 m/s)
Visibility: 6 or more miles (10+ km)
Ceiling: 4000 feet AGL
Clouds: few clouds at 2000 feet AGL
few clouds at 2600 feet AGL
broken clouds at 4000 feet AGL
Weather: no significant weather observed at this time

METAR text: DAAG 221730Z 28005KT 240V310 9999 FEW020TCU FEW026CB SCT040 10/05 Q1012
Conditions at: DAAG (DAR-EL-BEIDA/HOU, DZ) observed 1730 UTC 22 January 2019
Temperature: 10.0°C (50°F)
Dewpoint: 5.0°C (41°F) [RH = 71%]
Pressure (altimeter): 29.88 inches Hg (1012.0 mb)
Winds: from the W (280 degrees) at 6 MPH (5 knots; 2.6 m/s)
Visibility: 6 or more miles (10+ km)
Ceiling: at least 12,000 feet AGL
Clouds: few clouds at 2000 feet AGL
few clouds at 2600 feet AGL
scattered clouds at 4000 feet AGL
Weather: no significant weather observed at this time

METAR text: DAAG 221700Z 30008KT 9999 FEW020TCU FEW026CB SCT040 10/05 Q1012
Conditions at: DAAG (DAR-EL-BEIDA/HOU, DZ) observed 1700 UTC 22 January 2019
Temperature: 10.0°C (50°F)
Dewpoint: 5.0°C (41°F) [RH = 71%]
Pressure (altimeter): 29.88 inches Hg (1012.0 mb)
Winds: from the WNW (300 degrees) at 9 MPH (8 knots; 4.1 m/s)
Visibility: 6 or more miles (10+ km)
Ceiling: at least 12,000 feet AGL
Clouds: few clouds at 2000 feet AGL
few clouds at 2600 feet AGL
scattered clouds at 4000 feet AGL
Weather: no significant weather observed at this time

METAR text: DAAG 221630Z 29010KT 9999 FEW020TCU FEW026CB SCT040 11/05 Q1013
Conditions at: DAAG (DAR-EL-BEIDA/HOU, DZ) observed 1630 UTC 22 January 2019
Temperature: 11.0°C (52°F)
Dewpoint: 5.0°C (41°F) [RH = 66%]
Pressure (altimeter): 29.91 inches Hg (1013.0 mb)
Winds: from the WNW (290 degrees) at 12 MPH (10 knots; 5.1 m/s)
Visibility: 6 or more miles (10+ km)
Ceiling: at least 12,000 feet AGL
Clouds: few clouds at 2000 feet AGL
few clouds at 2600 feet AGL
scattered clouds at 4000 feet AGL
Weather: no significant weather observed at this time

METAR text: DAAG 221600Z 29015KT 9999 FEW020TCU FEW026CB SCT040 11/04 Q1013
Conditions at: DAAG (DAR-EL-BEIDA/HOU, DZ) observed 1600 UTC 22 January 2019
Temperature: 11.0°C (52°F)
Dewpoint: 4.0°C (39°F) [RH = 62%]
Pressure (altimeter): 29.91 inches Hg (1013.0 mb)
Winds: from the WNW (290 degrees) at 17 MPH (15 knots; 7.7 m/s)
Visibility: 6 or more miles (10+ km)
Ceiling: at least 12,000 feet AGL
Clouds: few clouds at 2000 feet AGL
few clouds at 2600 feet AGL
scattered clouds at 4000 feet AGL
Weather: no significant weather observed at this time

METAR text: DAAG 221530Z 29018KT 9999 FEW020TCU FEW026CB SCT040 12/04 Q1013
Conditions at: DAAG (DAR-EL-BEIDA/HOU, DZ) observed 1530 UTC 22 January 2019
Temperature: 12.0°C (54°F)
Dewpoint: 4.0°C (39°F) [RH = 58%]
Pressure (altimeter): 29.91 inches Hg (1013.0 mb)
Winds: from the WNW (290 degrees) at 21 MPH (18 knots; 9.3 m/s)
Visibility: 6 or more miles (10+ km)
Ceiling: at least 12,000 feet AGL
Clouds: few clouds at 2000 feet AGL
few clouds at 2600 feet AGL
scattered clouds at 4000 feet AGL
Weather: no significant weather observed at this time

METAR text: DAAG 221500Z 30020KT 9999 FEW020TCU FEW026CB SCT040 13/05 Q1013
Conditions at: DAAG (DAR-EL-BEIDA/HOU, DZ) observed 1500 UTC 22 January 2019
Temperature: 13.0°C (55°F)
Dewpoint: 5.0°C (41°F) [RH = 58%]
Pressure (altimeter): 29.91 inches Hg (1013.0 mb)
Winds: from the WNW (300 degrees) at 23 MPH (20 knots; 10.3 m/s)
Visibility: 6 or more miles (10+ km)
Ceiling: at least 12,000 feet AGL
Clouds: few clouds at 2000 feet AGL
few clouds at 2600 feet AGL
scattered clouds at 4000 feet AGL
Weather: no significant weather observed at this time

METAR text: DAAG 221430Z 30017KT 9999 FEW020TCU FEW026CB BKN040 11/04 Q1013
Conditions at: DAAG (DAR-EL-BEIDA/HOU, DZ) observed 1430 UTC 22 January 2019
Temperature: 11.0°C (52°F)
Dewpoint: 4.0°C (39°F) [RH = 62%]
Pressure (altimeter): 29.91 inches Hg (1013.0 mb)
Winds: from the WNW (300 degrees) at 20 MPH (17 knots; 8.7 m/s)
Visibility: 6 or more miles (10+ km)
Ceiling: 4000 feet AGL
Clouds: few clouds at 2000 feet AGL
few clouds at 2600 feet AGL
broken clouds at 4000 feet AGL
Weather: no significant weather observed at this time

METAR text: DAAG 221400Z 26008KT 9999 FEW020TCU FEW026CB BKN040 11/05 Q1013
Conditions at: DAAG (DAR-EL-BEIDA/HOU, DZ) observed 1400 UTC 22 January 2019
Temperature: 11.0°C (52°F)
Dewpoint: 5.0°C (41°F) [RH = 66%]
Pressure (altimeter): 29.91 inches Hg (1013.0 mb)
Winds: from the W (260 degrees) at 9 MPH (8 knots; 4.1 m/s)
Visibility: 6 or more miles (10+ km)
Ceiling: 4000 feet AGL
Clouds: few clouds at 2000 feet AGL
few clouds at 2600 feet AGL
broken clouds at 4000 feet AGL
Weather: no significant weather observed at this time

METAR text: DAAG 221330Z 31012KT 290V010 9999 FEW020TCU FEW026CB BKN040 11/06 Q1014
Conditions at: DAAG (DAR-EL-BEIDA/HOU, DZ) observed 1330 UTC 22 January 2019
Temperature: 11.0°C (52°F)
Dewpoint: 6.0°C (43°F) [RH = 71%]
Pressure (altimeter): 29.94 inches Hg (1014.0 mb)
Winds: from the NW (310 degrees) at 14 MPH (12 knots; 6.2 m/s)
Visibility: 6 or more miles (10+ km)
Ceiling: 4000 feet AGL
Clouds: few clouds at 2000 feet AGL
few clouds at 2600 feet AGL
broken clouds at 4000 feet AGL
Weather: no significant weather observed at this time

METAR text: DAAG 221300Z 28016KT 9999 SCT020TCU FEW026CB SCT040 12/06 Q1015
Conditions at: DAAG (DAR-EL-BEIDA/HOU, DZ) observed 1300 UTC 22 January 2019
Temperature: 12.0°C (54°F)
Dewpoint: 6.0°C (43°F) [RH = 67%]
Pressure (altimeter): 29.97 inches Hg (1015.0 mb)
Winds: from the W (280 degrees) at 18 MPH (16 knots; 8.2 m/s)
Visibility: 6 or more miles (10+ km)
Ceiling: at least 12,000 feet AGL
Clouds: scattered clouds at 2000 feet AGL
few clouds at 2600 feet AGL
scattered clouds at 4000 feet AGL
Weather: no significant weather observed at this time

METAR text: DAAG 221230Z 27013G23KT 230V300 9999 SCT020TCU FEW026CB 13/07 Q1015
Conditions at: DAAG (DAR-EL-BEIDA/HOU, DZ) observed 1230 UTC 22 January 2019
Temperature: 13.0°C (55°F)
Dewpoint: 7.0°C (45°F) [RH = 67%]
Pressure (altimeter): 29.97 inches Hg (1015.0 mb)
Winds: from the W (270 degrees) at 15 MPH (13 knots; 6.7 m/s)
gusting to 26 MPH (23 knots; 11.8 m/s)
Visibility: 6 or more miles (10+ km)
Ceiling: at least 12,000 feet AGL
Clouds: scattered clouds at 2000 feet AGL
few clouds at 2600 feet AGL
Weather: no significant weather observed at this time

METAR text: DAAG 221200Z 28012KT 9999 FEW020TCU FEW026CB SCT073 13/07 Q1015
Conditions at: DAAG (DAR-EL-BEIDA/HOU, DZ) observed 1200 UTC 22 January 2019
Temperature: 13.0°C (55°F)
Dewpoint: 7.0°C (45°F) [RH = 67%]
Pressure (altimeter): 29.97 inches Hg (1015.0 mb)
Winds: from the W (280 degrees) at 14 MPH (12 knots; 6.2 m/s)
Visibility: 6 or more miles (10+ km)
Ceiling: at least 12,000 feet AGL
Clouds: few clouds at 2000 feet AGL
few clouds at 2600 feet AGL
scattered clouds at 7300 feet AGL
Weather: no significant weather observed at this time

METAR text: DAAG 221130Z 28007KT 240V300 9999 FEW020TCU FEW026CB SCT073 11/07 Q1016
Conditions at: DAAG (DAR-EL-BEIDA/HOU, DZ) observed 1130 UTC 22 January 2019
Temperature: 11.0°C (52°F)
Dewpoint: 7.0°C (45°F) [RH = 76%]
Pressure (altimeter): 30.00 inches Hg (1016.0 mb)
Winds: from the W (280 degrees) at 8 MPH (7 knots; 3.6 m/s)
Visibility: 6 or more miles (10+ km)
Ceiling: at least 12,000 feet AGL
Clouds: few clouds at 2000 feet AGL
few clouds at 2600 feet AGL
scattered clouds at 7300 feet AGL
Weather: no significant weather observed at this time

METAR text: DAAG 221100Z 26006KT 210V290 9999 FEW020TCU FEW026CB BKN073 10/07 Q1016
Conditions at: DAAG (DAR-EL-BEIDA/HOU, DZ) observed 1100 UTC 22 January 2019
Temperature: 10.0°C (50°F)
Dewpoint: 7.0°C (45°F) [RH = 82%]
Pressure (altimeter): 30.00 inches Hg (1016.0 mb)
Winds: from the W (260 degrees) at 7 MPH (6 knots; 3.1 m/s)
Visibility: 6 or more miles (10+ km)
Ceiling: 7300 feet AGL
Clouds: few clouds at 2000 feet AGL
few clouds at 2600 feet AGL
broken clouds at 7300 feet AGL
Weather: no significant weather observed at this time

METAR text: DAAG 221030Z 27008KT 230V290 9999 FEW020TCU FEW026CB BKN073 10/07 Q1017
Conditions at: DAAG (DAR-EL-BEIDA/HOU, DZ) observed 1030 UTC 22 January 2019
Temperature: 10.0°C (50°F)
Dewpoint: 7.0°C (45°F) [RH = 82%]
Pressure (altimeter): 30.03 inches Hg (1017.0 mb)
Winds: from the W (270 degrees) at 9 MPH (8 knots; 4.1 m/s)
Visibility: 6 or more miles (10+ km)
Ceiling: 7300 feet AGL
Clouds: few clouds at 2000 feet AGL
few clouds at 2600 feet AGL
broken clouds at 7300 feet AGL
Weather: no significant weather observed at this time

METAR text: DAAG 221000Z 23004KT 170V290 9999 FEW020TCU FEW026CB BKN080 10/07 Q1017
Conditions at: DAAG (DAR-EL-BEIDA/HOU, DZ) observed 1000 UTC 22 January 2019
Temperature: 10.0°C (50°F)
Dewpoint: 7.0°C (45°F) [RH = 82%]
Pressure (altimeter): 30.03 inches Hg (1017.0 mb)
Winds: from the SW (230 degrees) at 5 MPH (4 knots; 2.1 m/s)
Visibility: 6 or more miles (10+ km)
Ceiling: 8000 feet AGL
Clouds: few clouds at 2000 feet AGL
few clouds at 2600 feet AGL
broken clouds at 8000 feet AGL
Weather: no significant weather observed at this time

METAR text: DAAG 220930Z 22005KT 9999 FEW020TCU FEW023CB BKN080 09/07 Q1017
Conditions at: DAAG (DAR-EL-BEIDA/HOU, DZ) observed 0930 UTC 22 January 2019
Temperature: 9.0°C (48°F)
Dewpoint: 7.0°C (45°F) [RH = 87%]
Pressure (altimeter): 30.03 inches Hg (1017.0 mb)
Winds: from the SW (220 degrees) at 6 MPH (5 knots; 2.6 m/s)
Visibility: 6 or more miles (10+ km)
Ceiling: 8000 feet AGL
Clouds: few clouds at 2000 feet AGL
few clouds at 2300 feet AGL
broken clouds at 8000 feet AGL
Weather: no significant weather observed at this time

METAR text: DAAG 220900Z 20003KT 130V240 9999 FEW020TCU FEW023CB SCT036 BKN080 08/07 Q1017
Conditions at: DAAG (DAR-EL-BEIDA/HOU, DZ) observed 0900 UTC 22 January 2019
Temperature: 8.0°C (46°F)
Dewpoint: 7.0°C (45°F) [RH = 93%]
Pressure (altimeter): 30.03 inches Hg (1017.0 mb)
Winds: from the SSW (200 degrees) at 3 MPH (3 knots; 1.5 m/s)
Visibility: 6 or more miles (10+ km)
Ceiling: 8000 feet AGL
Clouds: few clouds at 2000 feet AGL
few clouds at 2300 feet AGL
scattered clouds at 3600 feet AGL
broken clouds at 8000 feet AGL
Weather: no significant weather observed at this time

METAR text: DAAG 220830Z 32006KT 270V360 9999 -RA FEW020TCU FEW023CB SCT036 BKN080 07/06 Q1017
Conditions at: DAAG (DAR-EL-BEIDA/HOU, DZ) observed 0830 UTC 22 January 2019
Temperature: 7.0°C (45°F)
Dewpoint: 6.0°C (43°F) [RH = 93%]
Pressure (altimeter): 30.03 inches Hg (1017.0 mb)
Winds: from the NW (320 degrees) at 7 MPH (6 knots; 3.1 m/s)
Visibility: 6 or more miles (10+ km)
Ceiling: 8000 feet AGL
Clouds: few clouds at 2000 feet AGL
few clouds at 2300 feet AGL
scattered clouds at 3600 feet AGL
broken clouds at 8000 feet AGL
Weather: -RA  (light rain)

METAR text: DAAG 220800Z 25004KT 220V280 9999 -RA FEW020TCU FEW023CB SCT036 BKN080 07/06 Q1017
Conditions at: DAAG (DAR-EL-BEIDA/HOU, DZ) observed 0800 UTC 22 January 2019
Temperature: 7.0°C (45°F)
Dewpoint: 6.0°C (43°F) [RH = 93%]
Pressure (altimeter): 30.03 inches Hg (1017.0 mb)
Winds: from the WSW (250 degrees) at 5 MPH (4 knots; 2.1 m/s)
Visibility: 6 or more miles (10+ km)
Ceiling: 8000 feet AGL
Clouds: few clouds at 2000 feet AGL
few clouds at 2300 feet AGL
scattered clouds at 3600 feet AGL
broken clouds at 8000 feet AGL
Weather: -RA  (light rain)

Forecast for: DAAG (DAR-EL-BEIDA/HOU, DZ)
Text: TAF DAAG 231700Z 2318/2418 28024KT 9999 SCT020TCU BKN040
Forecast period: 1800 UTC 23 January 2019 to 1800 UTC 24 January 2019
Forecast type: FROM: standard forecast or significant change
Winds: from the W (280 degrees) at 28 MPH (24 knots; 12.3 m/s)
Visibility: 6 or more miles 10+ km)
Ceiling: 4000 feet AGL
Clouds: scattered clouds at 2000 feet AGL
broken clouds at 4000 feet AGL
Weather: no significant weather forecast for this period
Text: TEMPO 2318/2408 28025G35KT 5000 -RA FEW023CB
Forecast period: 1800 UTC 23 January 2019 to 0800 UTC 24 January 2019
Forecast type: TEMPORARY: The following changes expected for less than half the time period
Winds: from the W (280 degrees) at 29 MPH (25 knots; 12.9 m/s)
gusting to 40 MPH (35 knots; 18.0 m/s)
Visibility: 3 miles (5 km)
Ceiling: at least 12,000 feet AGL
Clouds: few clouds at 2300 feet AGL
Weather: -RA  (light rain)
Text: PROB40
Forecast period: 2000 UTC 23 January 2019 to 0800 UTC 24 January 2019
Forecast type: TEMPORARY: The following changes expected for less than half the time period
Winds: from the W (280 degrees) at 29 MPH (25 knots; 12.9 m/s)
gusting to 52 MPH (45 knots; 23.1 m/s)
Visibility: 1.86 miles (2.99 km)
Ceiling: at least 12,000 feet AGL
Clouds: scattered clouds at 2300 feet AGL
Weather: TSRA  (rain associated with thunderstorm(s))
Text: TEMPO 2320/2408 28025G45KT 3000 TSRA SCT023CB
Forecast period: 0000 to 0600 UTC 24 January 2019
Forecast type: TEMPORARY: The following changes expected for less than half the time period
Visibility: 1.24 miles (2.00 km)
Ceiling: 1500 feet AGL
Clouds: broken clouds at 1500 feet AGL
few clouds at 2000 feet AGL
Weather: SHRA  (rain showers)